createdAt,value
2018-04-19T00:00:13.612Z,5.50
2018-04-19T00:02:41.841Z,5.83
2018-04-19T00:05:10.038Z,6.47
2018-04-19T00:07:38.256Z,6.73
2018-04-19T00:10:06.519Z,6.33
2018-04-19T00:12:34.710Z,6.83
2018-04-19T00:15:02.955Z,5.13
2018-04-19T00:17:31.193Z,6.47
2018-04-19T00:19:59.407Z,5.93
2018-04-19T00:22:27.631Z,6.60
2018-04-19T00:24:55.839Z,6.57
2018-04-19T00:27:24.057Z,5.93
2018-04-19T00:29:52.324Z,6.13
2018-04-19T00:32:21.298Z,7.27
2018-04-19T00:34:49.519Z,8.07
2018-04-19T00:37:17.722Z,6.93
2018-04-19T00:39:45.962Z,6.90
2018-04-19T00:42:14.162Z,6.60
2018-04-19T00:44:42.362Z,7.27
2018-04-19T00:47:10.579Z,6.47
2018-04-19T00:49:38.779Z,5.57
2018-04-19T00:52:07.818Z,6.93
2018-04-19T00:54:36.027Z,6.57
2018-04-19T00:57:04.231Z,7.17
2018-04-19T00:59:32.522Z,7.60
2018-04-19T01:02:00.743Z,6.97
2018-04-19T01:04:28.990Z,8.37
2018-04-19T01:06:57.198Z,8.53
2018-04-19T01:09:25.430Z,8.83
2018-04-19T01:11:54.442Z,8.70
2018-04-19T01:14:22.646Z,8.00
2018-04-19T01:16:50.883Z,6.70
2018-04-19T01:19:19.847Z,7.63
2018-04-19T01:21:48.052Z,6.93
2018-04-19T01:24:16.309Z,7.60
2018-04-19T01:26:44.559Z,7.27
2018-04-19T01:29:12.813Z,8.37
2018-04-19T01:31:41.030Z,10.13
2018-04-19T01:34:09.231Z,8.97
2018-04-19T01:36:37.431Z,8.87
2018-04-19T01:39:05.638Z,9.23
2018-04-19T01:41:33.871Z,8.10
2018-04-19T01:44:02.086Z,12.07
2018-04-19T01:46:30.337Z,10.00
2018-04-19T01:48:58.531Z,10.10
2018-04-19T01:51:26.731Z,8.87
2018-04-19T01:53:54.943Z,10.00
2018-04-19T01:56:23.167Z,6.83
2018-04-19T01:58:51.386Z,9.33
2018-04-19T02:01:19.582Z,8.43
2018-04-19T02:03:47.794Z,9.50
2018-04-19T02:06:16.787Z,10.17
2018-04-19T02:08:45.006Z,10.63
2018-04-19T02:11:13.227Z,10.57
2018-04-19T02:13:42.224Z,10.00
2018-04-19T02:16:10.431Z,9.20
2018-04-19T02:18:38.659Z,7.33
2018-04-19T02:21:06.870Z,10.57
2018-04-19T02:23:35.124Z,8.83
2018-04-19T02:26:03.341Z,13.07
2018-04-19T02:28:31.537Z,11.03
2018-04-19T02:30:59.752Z,11.57
2018-04-19T02:33:27.977Z,10.27
2018-04-19T02:35:56.202Z,11.83
2018-04-19T02:38:25.174Z,11.23
2018-04-19T02:40:54.188Z,9.87
2018-04-19T02:43:22.411Z,7.40
2018-04-19T02:45:50.640Z,11.50
2018-04-19T02:48:18.844Z,8.17
2018-04-19T02:50:47.051Z,9.30
2018-04-19T02:53:15.259Z,10.53
2018-04-19T02:55:43.462Z,11.90
2018-04-19T02:58:11.686Z,11.63
2018-04-19T03:00:39.883Z,9.53
2018-04-19T03:03:08.096Z,10.53
2018-04-19T03:05:36.306Z,9.50
2018-04-19T03:08:04.507Z,9.57
2018-04-19T03:10:32.739Z,10.10
2018-04-19T03:13:00.958Z,7.50
2018-04-19T03:15:29.158Z,9.17
2018-04-19T03:17:57.414Z,9.20
2018-04-19T03:20:25.621Z,8.07
2018-04-19T03:22:53.872Z,9.83
2018-04-19T03:25:22.082Z,8.83
2018-04-19T03:27:50.298Z,9.50
2018-04-19T03:30:18.539Z,9.03
2018-04-19T03:32:46.745Z,7.37
2018-04-19T03:35:14.976Z,8.37
2018-04-19T03:37:43.188Z,9.67
2018-04-19T03:40:11.401Z,11.33
2018-04-19T03:42:39.649Z,10.73
2018-04-19T03:45:07.870Z,11.97
2018-04-19T03:47:36.084Z,12.20
2018-04-19T03:50:04.309Z,10.63
2018-04-19T03:52:32.539Z,9.57
2018-04-19T03:55:00.767Z,10.07
2018-04-19T03:57:28.976Z,7.90
2018-04-19T03:59:57.186Z,11.67
2018-04-19T04:02:25.407Z,10.43
2018-04-19T04:04:53.623Z,10.10
2018-04-19T04:07:21.849Z,10.90
2018-04-19T04:09:50.822Z,11.40
2018-04-19T04:12:19.034Z,11.30
2018-04-19T04:14:47.270Z,11.33
2018-04-19T04:17:27.262Z,9.57
2018-04-19T04:20:07.354Z,10.03
2018-04-19T04:22:47.175Z,10.73
2018-04-19T04:25:15.376Z,10.73
2018-04-19T04:27:43.579Z,9.67
2018-04-19T04:30:11.791Z,7.50
2018-04-19T04:32:39.995Z,9.30
2018-04-19T04:35:09.013Z,9.93
2018-04-19T04:37:37.218Z,8.30
2018-04-19T04:40:05.435Z,9.00
2018-04-19T04:42:33.840Z,8.43
2018-04-19T04:45:02.069Z,8.53
2018-04-19T04:47:30.311Z,8.60
2018-04-19T04:49:59.286Z,10.03
2018-04-19T04:52:30.135Z,8.63
2018-04-19T04:54:58.367Z,9.33
2018-04-19T04:57:26.608Z,10.43
2018-04-19T04:59:54.797Z,9.20
2018-04-19T05:02:23.003Z,11.13
2018-04-19T05:04:51.211Z,9.27
2018-04-19T05:07:19.491Z,10.20
2018-04-19T05:09:47.724Z,8.67
2018-04-19T05:12:15.922Z,9.27
2018-04-19T05:14:44.895Z,5.10
2018-04-19T05:17:13.135Z,7.93
2018-04-19T05:19:41.574Z,9.10
2018-04-19T05:22:09.745Z,10.80
2018-04-19T05:24:37.958Z,9.33
2018-04-19T05:27:06.159Z,9.40
2018-04-19T05:29:34.387Z,10.77
2018-04-19T05:32:02.646Z,8.97
2018-04-19T05:34:30.850Z,10.03
2018-04-19T05:36:59.070Z,9.27
2018-04-19T05:39:27.267Z,9.77
2018-04-19T05:41:55.497Z,11.03
2018-04-19T05:44:23.714Z,11.30
2018-04-19T05:46:51.974Z,9.60
2018-04-19T05:49:20.187Z,11.87
2018-04-19T05:51:48.400Z,8.90
2018-04-19T05:54:16.603Z,10.70
2018-04-19T05:56:44.835Z,10.57
2018-04-19T05:59:13.038Z,9.77
2018-04-19T06:01:41.314Z,9.27
2018-04-19T06:04:09.514Z,10.43
2018-04-19T06:06:37.730Z,8.03
2018-04-19T06:09:05.948Z,11.20
2018-04-19T06:11:34.163Z,8.50
2018-04-19T06:14:02.362Z,4.80
2018-04-19T06:16:30.612Z,14.73
2018-04-19T06:18:58.821Z,8.63
2018-04-19T06:21:27.075Z,11.20
2018-04-19T06:23:55.317Z,5.30
2018-04-19T06:26:23.547Z,12.80
2018-04-19T06:28:51.750Z,15.63
2018-04-19T06:31:19.956Z,14.10
2018-04-19T06:33:48.177Z,18.67
2018-04-19T06:36:17.155Z,15.33
2018-04-19T06:38:46.155Z,17.67
2018-04-19T06:41:15.127Z,11.93
2018-04-19T06:43:43.339Z,18.40
2018-04-19T06:46:11.566Z,15.07
2018-04-19T06:48:39.779Z,10.87
2018-04-19T06:51:08.034Z,13.83
2018-04-19T06:53:36.221Z,9.97
2018-04-19T06:56:05.215Z,12.30
2018-04-19T06:58:33.450Z,13.27
2018-04-19T07:01:01.661Z,11.30
2018-04-19T07:03:29.848Z,8.20
2018-04-19T07:05:58.047Z,11.23
2018-04-19T07:08:26.297Z,12.40
2018-04-19T07:10:54.487Z,9.17
2018-04-19T07:13:22.687Z,12.43
2018-04-19T07:15:50.895Z,10.30
2018-04-19T07:18:19.886Z,10.97
2018-04-19T07:20:48.884Z,12.00
2018-04-19T07:23:17.903Z,11.43
2018-04-19T07:27:42.019Z,11.87
2018-04-19T07:30:10.238Z,11.83
2018-04-19T07:32:38.435Z,11.47
2018-04-19T07:35:06.647Z,12.47
2018-04-19T07:37:34.859Z,12.27
2018-04-19T07:40:03.060Z,8.47
2018-04-19T07:42:31.267Z,8.77
2018-04-19T07:44:59.469Z,10.47
2018-04-19T07:47:28.488Z,9.13
2018-04-19T07:49:56.719Z,9.70
2018-04-19T07:52:25.159Z,10.73
2018-04-19T07:54:53.375Z,9.90
2018-04-19T07:57:21.582Z,10.20
2018-04-19T07:59:49.795Z,9.63
2018-04-19T08:02:18.014Z,9.63
2018-04-19T08:04:46.206Z,8.90
2018-04-19T08:07:14.404Z,9.27
2018-04-19T08:09:42.599Z,8.63
2018-04-19T08:12:10.821Z,8.93
2018-04-19T08:14:39.018Z,9.30
2018-04-19T08:17:07.219Z,9.07
2018-04-19T08:19:35.416Z,8.50
2018-04-19T08:22:03.635Z,8.70
2018-04-19T08:24:31.857Z,6.43
2018-04-19T08:27:00.049Z,7.90
2018-04-19T08:29:29.028Z,8.20
2018-04-19T08:31:57.222Z,7.93
2018-04-19T08:34:26.202Z,7.70
2018-04-19T08:36:55.171Z,6.97
2018-04-19T08:39:23.403Z,8.17
2018-04-19T08:41:51.601Z,7.77
2018-04-19T08:44:19.831Z,6.40
2018-04-19T08:46:48.030Z,6.10
2018-04-19T08:49:16.247Z,6.37
2018-04-19T08:51:44.463Z,6.23
2018-04-19T08:54:12.763Z,7.13
2018-04-19T08:56:40.963Z,6.63
2018-04-19T08:59:09.162Z,7.40
2018-04-19T09:01:37.387Z,7.70
2018-04-19T09:04:05.584Z,6.67
2018-04-19T09:06:33.790Z,6.53
2018-04-19T09:09:02.806Z,7.60
2018-04-19T09:11:31.177Z,7.67
2018-04-19T09:13:59.388Z,7.77
2018-04-19T09:16:27.612Z,6.47
2018-04-19T09:18:55.803Z,7.30
2018-04-19T09:21:24.012Z,7.43
2018-04-19T09:23:52.208Z,7.87
2018-04-19T09:26:20.491Z,7.63
2018-04-19T09:28:48.707Z,7.33
2018-04-19T09:31:16.892Z,7.10
2018-04-19T09:33:45.089Z,6.23
2018-04-19T09:36:13.286Z,5.63
2018-04-19T09:38:41.491Z,6.57
2018-04-19T09:41:09.691Z,5.67
2018-04-19T09:43:37.896Z,6.83
2018-04-19T09:46:06.102Z,7.53
2018-04-19T09:48:34.315Z,6.57
2018-04-19T09:51:02.548Z,7.50
2018-04-19T09:53:30.799Z,7.43
2018-04-19T09:55:59.002Z,7.13
2018-04-19T09:58:27.190Z,7.23
2018-04-19T10:01:01.359Z,6.47
2018-04-19T10:06:27.125Z,6.73
2018-04-19T10:08:55.283Z,6.40
2018-04-19T10:11:23.474Z,5.80
2018-04-19T10:13:51.688Z,7.10
2018-04-19T10:16:19.883Z,6.00
2018-04-19T10:18:48.091Z,7.43
2018-04-19T10:21:16.451Z,8.67
2018-04-19T10:23:44.634Z,4.97
2018-04-19T10:26:12.834Z,5.40
2018-04-19T10:28:41.075Z,6.63
2018-04-19T10:31:09.269Z,6.47
2018-04-19T10:33:37.473Z,7.90
2018-04-19T10:36:05.666Z,7.77
2018-04-19T10:38:33.872Z,6.20
2018-04-19T10:41:02.837Z,6.97
2018-04-19T10:43:31.027Z,5.30
2018-04-19T10:45:59.218Z,6.90
2018-04-19T10:48:27.415Z,6.90
2018-04-19T10:50:55.623Z,5.40
2018-04-19T10:53:23.823Z,5.47
2018-04-19T10:55:52.794Z,6.67
2018-04-19T10:58:20.996Z,5.93
2018-04-19T11:00:49.204Z,6.47
2018-04-19T11:03:17.407Z,6.23
2018-04-19T11:05:45.606Z,6.13
2018-04-19T11:08:13.803Z,5.33
2018-04-19T11:10:42.046Z,4.53
2018-04-19T11:13:10.235Z,7.47
2018-04-19T11:18:56.911Z,8.80
2018-04-19T11:21:25.500Z,8.00
2018-04-19T11:23:54.205Z,7.30
2018-04-19T11:26:27.067Z,6.80
2018-04-19T11:28:58.500Z,8.17
2018-04-19T11:31:28.704Z,9.50
2018-04-19T11:34:01.056Z,8.60
2018-04-19T11:39:04.434Z,9.80
2018-04-19T11:41:33.010Z,8.80
2018-04-19T11:46:37.423Z,8.50
2018-04-19T11:49:06.348Z,8.57
2018-04-19T11:54:06.996Z,7.50
2018-04-19T11:56:35.273Z,7.83
2018-04-19T11:59:04.432Z,7.73
2018-04-19T12:01:32.739Z,8.20
2018-04-19T12:04:01.061Z,7.93
2018-04-19T12:06:29.391Z,6.87
2018-04-19T12:08:59.130Z,7.23
2018-04-19T12:11:27.599Z,7.80
2018-04-19T12:13:55.841Z,6.67
2018-04-19T12:16:24.087Z,6.37
2018-04-19T12:18:52.392Z,7.03
2018-04-19T12:21:20.715Z,7.20
2018-04-19T12:23:48.944Z,7.27
2018-04-19T12:26:17.230Z,7.60
2018-04-19T12:28:46.231Z,9.03
2018-04-19T12:31:14.497Z,8.70
2018-04-19T12:33:42.851Z,8.00
2018-04-19T12:36:11.147Z,8.70
2018-04-19T12:38:39.493Z,7.80
2018-04-19T12:41:08.036Z,9.43
2018-04-19T12:43:36.786Z,8.53
2018-04-19T12:46:05.459Z,7.67
2018-04-19T12:48:33.862Z,8.50
2018-04-19T12:51:02.138Z,6.40
2018-04-19T12:53:31.182Z,6.07
2018-04-19T12:55:59.464Z,5.57
2018-04-19T12:58:27.807Z,5.67
2018-04-19T13:00:56.103Z,5.97
2018-04-19T13:03:24.392Z,6.67
2018-04-19T13:05:52.746Z,5.90
2018-04-19T13:08:21.027Z,5.57
2018-04-19T13:10:49.500Z,4.70
2018-04-19T13:13:17.768Z,5.33
2018-04-19T13:15:46.061Z,5.40
2018-04-19T13:18:14.303Z,5.20
2018-04-19T13:20:42.627Z,4.80
2018-04-19T13:23:10.937Z,6.80
2018-04-19T13:25:39.441Z,5.20
2018-04-19T13:28:07.631Z,3.97
2018-04-19T13:30:36.375Z,3.90
2018-04-19T13:33:06.136Z,4.97
2018-04-19T13:35:34.457Z,4.13
2018-04-19T13:38:03.000Z,4.53
2018-04-19T13:40:31.452Z,4.27
2018-04-19T13:42:59.729Z,3.63
2018-04-19T13:45:28.084Z,3.30
2018-04-19T13:47:56.475Z,4.27
2018-04-19T13:50:25.007Z,3.13
2018-04-19T13:52:53.401Z,3.13
2018-04-19T13:55:21.772Z,3.87
2018-04-19T13:57:50.023Z,3.60
2018-04-19T14:00:19.075Z,4.13
2018-04-19T14:02:48.843Z,3.60
2018-04-19T14:05:17.193Z,3.43
2018-04-19T14:07:45.533Z,4.87
2018-04-19T14:10:14.718Z,3.40
2018-04-19T14:12:43.017Z,3.20
2018-04-19T14:15:11.275Z,3.20
2018-04-19T14:17:39.587Z,2.93
2018-04-19T14:20:07.868Z,3.43
2018-04-19T14:22:36.367Z,3.90
2018-04-19T14:25:04.667Z,3.40
2018-04-19T14:27:33.206Z,3.33
2018-04-19T14:30:01.582Z,4.47
2018-04-19T14:32:30.696Z,3.30
2018-04-19T14:34:59.184Z,6.10
2018-04-19T14:37:27.575Z,3.73
2018-04-19T14:39:55.923Z,2.80
2018-04-19T14:42:24.298Z,4.10
2018-04-19T14:44:52.575Z,7.83
2018-04-19T14:47:20.877Z,3.87
2018-04-19T14:49:49.247Z,2.77
2018-04-19T14:52:18.132Z,3.87
2018-04-19T14:54:46.393Z,3.83
2018-04-19T14:57:14.678Z,3.67
2018-04-19T14:59:42.977Z,3.10
2018-04-19T15:02:11.580Z,2.60
2018-04-19T15:04:39.994Z,3.47
2018-04-19T15:07:08.244Z,2.70
2018-04-19T15:09:36.527Z,2.87
2018-04-19T15:12:04.998Z,2.40
2018-04-19T15:14:33.970Z,2.50
2018-04-19T15:17:02.632Z,2.87
2018-04-19T15:19:34.156Z,2.30
2018-04-19T15:22:02.390Z,2.40
2018-04-19T15:24:30.697Z,11.00
2018-04-19T15:26:59.959Z,5.17
2018-04-19T15:29:28.299Z,4.77
2018-04-19T15:31:56.621Z,2.60
2018-04-19T15:34:25.083Z,2.53
2018-04-19T15:36:54.195Z,3.63
2018-04-19T15:39:23.454Z,2.30
2018-04-19T15:41:51.723Z,2.13
2018-04-19T15:44:20.097Z,1.93
2018-04-19T15:46:48.427Z,2.20
2018-04-19T15:49:17.508Z,2.37
2018-04-19T15:51:46.056Z,2.30
2018-04-19T15:54:14.394Z,2.27
2018-04-19T15:56:42.752Z,2.00
2018-04-19T15:59:11.035Z,1.90
2018-04-19T16:01:39.357Z,2.20
2018-04-19T16:04:07.622Z,2.20
2018-04-19T16:06:36.767Z,2.20
2018-04-19T16:09:05.977Z,2.00
2018-04-19T16:11:34.314Z,2.40
2018-04-19T16:14:02.919Z,1.97
2018-04-19T16:16:34.468Z,2.03
2018-04-19T16:19:02.770Z,2.07
2018-04-19T16:21:31.098Z,2.13
2018-04-19T16:23:59.492Z,1.90
2018-04-19T16:26:27.854Z,2.43
2018-04-19T16:28:56.200Z,1.90
2018-04-19T16:31:24.657Z,2.30
2018-04-19T16:33:53.101Z,13.23
2018-04-19T16:36:21.596Z,2.30
2018-04-19T16:38:50.057Z,36.23
2018-04-19T16:41:18.417Z,2.37
2018-04-19T16:43:47.009Z,2.70
2018-04-19T16:46:17.105Z,2.47
2018-04-19T16:48:45.568Z,2.30
2018-04-19T16:51:14.564Z,1.73
2018-04-19T16:53:42.942Z,2.20
2018-04-19T16:56:11.919Z,2.40
2018-04-19T16:58:40.440Z,2.37
2018-04-19T17:01:08.844Z,2.60
2018-04-19T17:03:37.140Z,2.23
2018-04-19T17:06:07.069Z,1.80
2018-04-19T17:08:35.385Z,2.27
2018-04-19T17:11:07.005Z,2.30
2018-04-19T17:13:35.957Z,2.20
2018-04-19T17:23:42.984Z,2.30
2018-04-19T17:31:16.949Z,3.93
2018-04-19T19:44:18.580Z,2.40
2018-04-19T20:25:01.009Z,3.57
2018-04-19T20:30:04.261Z,3.33
2018-04-19T20:52:58.080Z,3.17
2018-04-19T21:08:11.559Z,4.33
2018-04-19T21:10:42.124Z,5.07
2018-04-19T21:18:17.150Z,4.17
2018-04-19T21:20:48.676Z,4.30
2018-04-19T21:23:20.513Z,4.40
2018-04-19T21:28:22.221Z,3.77
2018-04-19T21:41:04.147Z,5.00
2018-04-19T21:58:57.645Z,5.20
2018-04-19T22:03:59.392Z,5.37
2018-04-19T23:00:00.433Z,5.17
2018-04-19T23:02:28.727Z,5.67
2018-04-19T23:04:56.950Z,5.57
2018-04-19T23:07:25.917Z,5.20
2018-04-19T23:09:54.158Z,5.70
2018-04-19T23:12:22.381Z,5.53
2018-04-19T23:14:50.617Z,6.43
2018-04-19T23:17:18.819Z,5.87
2018-04-19T23:19:47.076Z,6.27
2018-04-19T23:22:15.256Z,6.13
2018-04-19T23:24:43.447Z,6.17
2018-04-19T23:27:12.429Z,5.43
2018-04-19T23:29:40.648Z,6.07
2018-04-19T23:32:08.842Z,5.23
2018-04-19T23:34:37.086Z,6.97
2018-04-19T23:37:05.288Z,5.63
2018-04-19T23:39:33.487Z,6.87
2018-04-19T23:42:01.710Z,6.97
2018-04-19T23:44:29.925Z,6.43
2018-04-19T23:46:58.124Z,5.87
2018-04-19T23:49:26.331Z,5.83
2018-04-19T23:51:54.526Z,6.00
2018-04-19T23:54:22.744Z,5.83
2018-04-19T23:56:50.964Z,6.13
2018-04-19T23:59:19.201Z,6.53
